sensor_id;sensor_type;location;lat;lon;timestamp;pressure;altitude;pressure_sealevel;temperature;humidity
58973;BME280;44750;52.040;7.472;2023-12-20T00:00:12;101129.47;;;7.40;100.00
58973;BME280;44750;52.040;7.472;2023-12-20T00:05:13;101127.75;;;7.39;100.00
58973;BME280;44750;52.040;7.472;2023-12-20T00:10:14;101122.34;;;7.39;100.00
58973;BME280;44750;52.040;7.472;2023-12-20T00:15:14;101118.94;;;7.37;100.00
58973;BME280;44750;52.040;7.472;2023-12-20T00:20:14;101117.22;;;7.36;100.00
58973;BME280;44750;52.040;7.472;2023-12-20T00:25:15;101111.97;;;7.34;100.00
58973;BME280;44750;52.040;7.472;2023-12-20T00:30:15;101106.31;;;7.26;100.00
58973;BME280;44750;52.040;7.472;2023-12-20T00:35:16;101090.53;;;7.22;100.00
58973;BME280;44750;52.040;7.472;2023-12-20T00:40:16;101088.56;;;7.24;100.00
58973;BME280;44750;52.040;7.472;2023-12-20T00:45:16;101061.66;;;7.12;100.00
58973;BME280;44750;52.040;7.472;2023-12-20T00:50:16;101070.22;;;7.17;100.00
58973;BME280;44750;52.040;7.472;2023-12-20T00:55:17;101058.56;;;7.17;100.00
58973;BME280;44750;52.040;7.472;2023-12-20T01:00:17;101043.91;;;7.10;100.00
58973;BME280;44750;52.040;7.472;2023-12-20T01:05:18;101039.25;;;7.12;100.00
58973;BME280;44750;52.040;7.472;2023-12-20T01:10:18;101010.84;;;7.08;100.00
58973;BME280;44750;52.040;7.472;2023-12-20T01:15:18;100998.16;;;6.98;100.00
58973;BME280;44750;52.040;7.472;2023-12-20T01:20:19;101003.63;;;6.97;100.00
58973;BME280;44750;52.040;7.472;2023-12-20T01:25:19;100997.53;;;6.95;100.00
58973;BME280;44750;52.040;7.472;2023-12-20T01:30:19;100982.63;;;6.91;100.00
58973;BME280;44750;52.040;7.472;2023-12-20T01:35:19;100972.69;;;6.91;100.00
58973;BME280;44750;52.040;7.472;2023-12-20T01:40:20;100946.63;;;6.92;100.00
58973;BME280;44750;52.040;7.472;2023-12-20T01:45:20;100942.97;;;6.93;100.00
58973;BME280;44750;52.040;7.472;2023-12-20T01:50:21;100913.13;;;6.84;100.00
58973;BME280;44750;52.040;7.472;2023-12-20T01:55:22;100919.50;;;6.83;100.00
58973;BME280;44750;52.040;7.472;2023-12-20T02:00:22;100904.22;;;6.73;100.00
58973;BME280;44750;52.040;7.472;2023-12-20T02:05:23;100910.69;;;6.70;100.00
58973;BME280;44750;52.040;7.472;2023-12-20T02:10:24;100895.91;;;6.64;100.00
58973;BME280;44750;52.040;7.472;2023-12-20T02:15:25;100874.25;;;6.66;100.00
58973;BME280;44750;52.040;7.472;2023-12-20T02:20:25;100865.34;;;6.65;100.00
58973;BME280;44750;52.040;7.472;2023-12-20T02:25:25;100843.69;;;6.56;100.00
58973;BME280;44750;52.040;7.472;2023-12-20T02:30:25;100840.56;;;6.50;100.00
58973;BME280;44750;52.040;7.472;2023-12-20T02:35:26;100834.56;;;6.47;100.00
58973;BME280;44750;52.040;7.472;2023-12-20T02:40:26;100822.06;;;6.46;100.00
58973;BME280;44750;52.040;7.472;2023-12-20T02:45:27;100807.78;;;6.34;100.00
58973;BME280;44750;52.040;7.472;2023-12-20T02:50:27;100808.16;;;6.41;100.00
58973;BME280;44750;52.040;7.472;2023-12-20T02:55:27;100785.44;;;6.33;100.00
58973;BME280;44750;52.040;7.472;2023-12-20T03:00:27;100766.97;;;6.29;100.00
58973;BME280;44750;52.040;7.472;2023-12-20T03:05:28;100743.16;;;6.24;100.00
58973;BME280;44750;52.040;7.472;2023-12-20T03:10:28;100756.47;;;6.26;100.00
58973;BME280;44750;52.040;7.472;2023-12-20T03:15:28;100754.75;;;6.25;100.00
58973;BME280;44750;52.040;7.472;2023-12-20T03:20:28;100748.16;;;6.29;100.00
58973;BME280;44750;52.040;7.472;2023-12-20T03:25:29;100733.25;;;6.25;100.00
58973;BME280;44750;52.040;7.472;2023-12-20T03:30:29;100728.97;;;6.22;100.00
58973;BME280;44750;52.040;7.472;2023-12-20T03:35:29;100724.72;;;6.19;100.00
58973;BME280;44750;52.040;7.472;2023-12-20T03:40:30;100713.25;;;6.17;100.00
58973;BME280;44750;52.040;7.472;2023-12-20T03:45:31;100701.75;;;6.15;100.00
58973;BME280;44750;52.040;7.472;2023-12-20T03:50:31;100703.47;;;6.16;100.00
58973;BME280;44750;52.040;7.472;2023-12-20T03:55:31;100686.84;;;6.11;100.00
58973;BME280;44750;52.040;7.472;2023-12-20T04:00:31;100698.34;;;6.13;100.00
58973;BME280;44750;52.040;7.472;2023-12-20T04:05:31;100714.09;;;6.18;100.00
58973;BME280;44750;52.040;7.472;2023-12-20T04:10:32;100714.97;;;6.18;100.00
58973;BME280;44750;52.040;7.472;2023-12-20T04:15:32;100701.50;;;6.18;100.00
58973;BME280;44750;52.040;7.472;2023-12-20T04:20:32;100700.38;;;6.21;100.00
58973;BME280;44750;52.040;7.472;2023-12-20T04:25:32;100699.53;;;6.21;100.00
58973;BME280;44750;52.040;7.472;2023-12-20T04:30:33;100712.34;;;6.28;100.00
58973;BME280;44750;52.040;7.472;2023-12-20T04:35:33;100707.13;;;6.27;100.00
58973;BME280;44750;52.040;7.472;2023-12-20T04:40:33;100695.63;;;6.25;100.00
58973;BME280;44750;52.040;7.472;2023-12-20T04:45:34;100693.69;;;6.27;100.00
58973;BME280;44750;52.040;7.472;2023-12-20T04:50:34;100698.78;;;6.30;100.00
58973;BME280;44750;52.040;7.472;2023-12-20T04:55:34;100681.81;;;6.29;100.00
58973;BME280;44750;52.040;7.472;2023-12-20T05:00:35;100681.56;;;6.32;100.00
58973;BME280;44750;52.040;7.472;2023-12-20T05:05:35;100683.00;;;6.36;100.00
58973;BME280;44750;52.040;7.472;2023-12-20T05:10:36;100677.75;;;6.35;100.00
58973;BME280;44750;52.040;7.472;2023-12-20T05:15:36;100672.25;;;6.36;100.00
58973;BME280;44750;52.040;7.472;2023-12-20T05:20:36;100661.91;;;6.32;100.00
58973;BME280;44750;52.040;7.472;2023-12-20T05:25:36;100655.50;;;6.33;100.00
58973;BME280;44750;52.040;7.472;2023-12-20T05:30:37;100655.50;;;6.33;100.00
58973;BME280;44750;52.040;7.472;2023-12-20T05:35:37;100654.28;;;6.37;100.00
58973;BME280;44750;52.040;7.472;2023-12-20T05:40:38;100660.41;;;6.39;100.00
58973;BME280;44750;52.040;7.472;2023-12-20T05:45:38;100659.66;;;6.37;100.00
58973;BME280;44750;52.040;7.472;2023-12-20T05:50:38;100664.06;;;6.38;100.00
58973;BME280;44750;52.040;7.472;2023-12-20T05:55:38;100651.84;;;6.34;100.00
58973;BME280;44750;52.040;7.472;2023-12-20T06:00:39;100648.66;;;6.40;100.00
58973;BME280;44750;52.040;7.472;2023-12-20T06:05:39;100651.34;;;6.40;100.00
58973;BME280;44750;52.040;7.472;2023-12-20T06:10:39;100646.69;;;6.42;100.00
58973;BME280;44750;52.040;7.472;2023-12-20T06:15:39;100648.03;;;6.48;100.00
58973;BME280;44750;52.040;7.472;2023-12-20T06:20:40;100642.88;;;6.45;100.00
58973;BME280;44750;52.040;7.472;2023-12-20T06:25:40;100642.03;;;6.44;100.00
58973;BME280;44750;52.040;7.472;2023-12-20T06:30:40;100643.03;;;6.43;100.00
58973;BME280;44750;52.040;7.472;2023-12-20T06:35:41;100634.25;;;6.41;100.00
58973;BME280;44750;52.040;7.472;2023-12-20T06:40:41;100613.94;;;6.37;100.00
58973;BME280;44750;52.040;7.472;2023-12-20T06:45:41;100610.53;;;6.35;100.00
58973;BME280;44750;52.040;7.472;2023-12-20T06:50:41;100604.66;;;6.41;100.00
58973;BME280;44750;52.040;7.472;2023-12-20T06:55:42;100602.97;;;6.40;100.00
58973;BME280;44750;52.040;7.472;2023-12-20T07:00:42;100595.59;;;6.42;100.00
58973;BME280;44750;52.040;7.472;2023-12-20T07:05:43;100590.13;;;6.44;100.00
58973;BME280;44750;52.040;7.472;2023-12-20T07:10:43;100574.69;;;6.46;100.00
58973;BME280;44750;52.040;7.472;2023-12-20T07:15:43;100573.84;;;6.45;100.00
58973;BME280;44750;52.040;7.472;2023-12-20T07:20:43;100566.50;;;6.47;100.00
58973;BME280;44750;52.040;7.472;2023-12-20T07:25:44;100555.03;;;6.45;100.00
58973;BME280;44750;52.040;7.472;2023-12-20T07:30:44;100556.97;;;6.43;100.00
58973;BME280;44750;52.040;7.472;2023-12-20T07:35:44;100565.00;;;6.55;100.00
58973;BME280;44750;52.040;7.472;2023-12-20T07:40:44;100546.19;;;6.55;100.00
58973;BME280;44750;52.040;7.472;2023-12-20T07:45:45;100551.56;;;6.55;100.00
58973;BME280;44750;52.040;7.472;2023-12-20T07:50:45;100544.19;;;6.57;100.00
58973;BME280;44750;52.040;7.472;2023-12-20T07:55:45;100538.69;;;6.58;100.00
58973;BME280;44750;52.040;7.472;2023-12-20T08:00:45;100525.22;;;6.58;100.00
58973;BME280;44750;52.040;7.472;2023-12-20T08:05:46;100521.25;;;6.52;100.00
58973;BME280;44750;52.040;7.472;2023-12-20T08:10:46;100521.41;;;6.61;100.00
58973;BME280;44750;52.040;7.472;2023-12-20T08:15:46;100525.69;;;6.63;100.00
58973;BME280;44750;52.040;7.472;2023-12-20T08:20:46;100519.59;;;6.61;100.00
58973;BME280;44750;52.040;7.472;2023-12-20T08:25:47;100530.56;;;6.69;100.00
58973;BME280;44750;52.040;7.472;2023-12-20T08:30:47;100532.69;;;6.76;100.00
58973;BME280;44750;52.040;7.472;2023-12-20T08:35:47;100538.44;;;6.82;100.00
58973;BME280;44750;52.040;7.472;2023-12-20T08:40:47;100522.00;;;6.85;100.00
58973;BME280;44750;52.040;7.472;2023-12-20T08:45:48;100521.72;;;6.89;100.00
58973;BME280;44750;52.040;7.472;2023-12-20T08:50:48;100495.78;;;6.88;100.00
58973;BME280;44750;52.040;7.472;2023-12-20T08:55:48;100492.25;;;6.87;100.00
58973;BME280;44750;52.040;7.472;2023-12-20T09:00:48;100474.19;;;6.99;100.00
58973;BME280;44750;52.040;7.472;2023-12-20T09:05:49;100455.34;;;6.99;100.00
58973;BME280;44750;52.040;7.472;2023-12-20T09:10:49;100451.25;;;7.05;100.00
58973;BME280;44750;52.040;7.472;2023-12-20T09:15:49;100445.03;;;7.04;100.00
58973;BME280;44750;52.040;7.472;2023-12-20T09:20:49;100430.84;;;7.02;100.00
58973;BME280;44750;52.040;7.472;2023-12-20T09:25:50;100417.41;;;7.02;100.00
58973;BME280;44750;52.040;7.472;2023-12-20T09:30:50;100422.25;;;7.08;100.00
58973;BME280;44750;52.040;7.472;2023-12-20T09:35:50;100428.91;;;7.14;100.00
58973;BME280;44750;52.040;7.472;2023-12-20T09:40:51;100411.03;;;7.13;100.00
58973;BME280;44750;52.040;7.472;2023-12-20T09:45:53;100412.91;;;7.12;100.00
58973;BME280;44750;52.040;7.472;2023-12-20T09:50:54;100428.50;;;7.18;100.00
58973;BME280;44750;52.040;7.472;2023-12-20T09:55:58;100412.75;;;7.14;100.00
58973;BME280;44750;52.040;7.472;2023-12-20T10:00:59;100419.25;;;7.11;100.00
58973;BME280;44750;52.040;7.472;2023-12-20T10:06:00;100433.16;;;7.16;100.00
58973;BME280;44750;52.040;7.472;2023-12-20T10:11:03;100434.28;;;7.14;100.00
58973;BME280;44750;52.040;7.472;2023-12-20T10:16:05;100434.44;;;7.12;100.00
58973;BME280;44750;52.040;7.472;2023-12-20T10:21:06;100461.34;;;7.12;100.00
58973;BME280;44750;52.040;7.472;2023-12-20T10:26:07;100462.94;;;7.25;100.00
58973;BME280;44750;52.040;7.472;2023-12-20T10:31:07;100456.28;;;7.29;100.00
58973;BME280;44750;52.040;7.472;2023-12-20T10:36:09;100456.72;;;7.34;100.00
58973;BME280;44750;52.040;7.472;2023-12-20T10:41:09;100464.69;;;7.45;100.00
58973;BME280;44750;52.040;7.472;2023-12-20T10:46:11;100450.50;;;7.43;100.00
58973;BME280;44750;52.040;7.472;2023-12-20T10:51:14;100446.00;;;7.44;100.00
58973;BME280;44750;52.040;7.472;2023-12-20T10:56:18;100433.38;;;7.44;100.00
58973;BME280;44750;52.040;7.472;2023-12-20T11:01:19;100427.13;;;7.44;100.00
58973;BME280;44750;52.040;7.472;2023-12-20T11:17:10;100388.44;;;7.55;100.00
58973;BME280;44750;52.040;7.472;2023-12-20T11:22:10;100394.94;;;7.81;100.00
58973;BME280;44750;52.040;7.472;2023-12-20T11:27:12;100386.69;;;7.93;100.00
58973;BME280;44750;52.040;7.472;2023-12-20T11:37:35;100403.47;;;8.53;100.00
58973;BME280;44750;52.040;7.472;2023-12-20T11:42:39;100401.81;;;8.80;100.00
58973;BME280;44750;52.040;7.472;2023-12-20T11:47:40;100386.09;;;9.22;100.00
58973;BME280;44750;52.040;7.472;2023-12-20T11:52:40;100313.94;;;8.96;100.00
58973;BME280;44750;52.040;7.472;2023-12-20T11:57:42;100300.81;;;9.19;100.00
58973;BME280;44750;52.040;7.472;2023-12-20T12:02:43;100232.16;;;8.85;100.00
58973;BME280;44750;52.040;7.472;2023-12-20T12:07:43;100190.53;;;8.70;100.00
58973;BME280;44750;52.040;7.472;2023-12-20T12:12:43;100173.88;;;8.75;100.00
58973;BME280;44750;52.040;7.472;2023-12-20T12:17:44;100140.34;;;8.59;100.00
58973;BME280;44750;52.040;7.472;2023-12-20T12:22:44;100174.00;;;9.09;100.00
58973;BME280;44750;52.040;7.472;2023-12-20T12:27:44;100214.78;;;9.77;100.00
58973;BME280;44750;52.040;7.472;2023-12-20T12:32:44;100169.41;;;10.31;100.00
58973;BME280;44750;52.040;7.472;2023-12-20T12:37:45;100092.34;;;9.76;100.00
58973;BME280;44750;52.040;7.472;2023-12-20T12:42:45;100060.31;;;9.55;100.00
58973;BME280;44750;52.040;7.472;2023-12-20T12:47:45;100024.75;;;9.25;100.00
58973;BME280;44750;52.040;7.472;2023-12-20T12:52:46;99994.13;;;8.82;100.00
58973;BME280;44750;52.040;7.472;2023-12-20T12:57:46;99981.94;;;8.51;100.00
58973;BME280;44750;52.040;7.472;2023-12-20T13:02:46;99986.22;;;8.36;100.00
58973;BME280;44750;52.040;7.472;2023-12-20T13:07:46;99988.13;;;8.26;100.00
58973;BME280;44750;52.040;7.472;2023-12-20T13:12:47;99980.31;;;8.14;100.00
58973;BME280;44750;52.040;7.472;2023-12-20T13:17:47;100007.00;;;8.08;100.00
58973;BME280;44750;52.040;7.472;2023-12-20T13:22:48;99984.78;;;7.42;100.00
58973;BME280;44750;52.040;7.472;2023-12-20T13:27:48;99961.13;;;7.17;100.00
58973;BME280;44750;52.040;7.472;2023-12-20T13:32:48;99998.91;;;7.26;100.00
58973;BME280;44750;52.040;7.472;2023-12-20T13:37:48;99983.84;;;7.05;100.00
58973;BME280;44750;52.040;7.472;2023-12-20T13:42:49;100003.19;;;7.18;100.00
58973;BME280;44750;52.040;7.472;2023-12-20T13:47:49;100026.22;;;7.31;100.00
58973;BME280;44750;52.040;7.472;2023-12-20T13:52:49;100035.53;;;7.36;100.00
58973;BME280;44750;52.040;7.472;2023-12-20T13:57:50;100027.53;;;7.27;100.00
58973;BME280;44750;52.040;7.472;2023-12-20T14:02:50;100024.41;;;7.22;100.00
58973;BME280;44750;52.040;7.472;2023-12-20T14:07:50;100046.91;;;7.30;100.00
58973;BME280;44750;52.040;7.472;2023-12-20T14:12:50;100079.88;;;7.42;100.00
58973;BME280;44750;52.040;7.472;2023-12-20T14:17:51;100103.63;;;7.57;100.00
58973;BME280;44750;52.040;7.472;2023-12-20T14:22:51;100107.44;;;7.64;100.00
58973;BME280;44750;52.040;7.472;2023-12-20T14:27:51;100112.91;;;7.72;100.00
58973;BME280;44750;52.040;7.472;2023-12-20T14:32:51;100104.03;;;7.62;100.00
58973;BME280;44750;52.040;7.472;2023-12-20T14:37:52;100118.75;;;7.67;100.00
58973;BME280;44750;52.040;7.472;2023-12-20T14:42:52;100118.22;;;7.64;100.00
58973;BME280;44750;52.040;7.472;2023-12-20T14:47:52;100144.53;;;7.70;100.00
58973;BME280;44750;52.040;7.472;2023-12-20T14:52:52;100143.69;;;7.69;100.00
58973;BME280;44750;52.040;7.472;2023-12-20T14:57:53;100144.00;;;7.66;100.00
58973;BME280;44750;52.040;7.472;2023-12-20T15:02:53;100157.00;;;7.71;100.00
58973;BME280;44750;52.040;7.472;2023-12-20T15:07:53;100145.84;;;7.66;100.00
58973;BME280;44750;52.040;7.472;2023-12-20T15:12:53;100147.44;;;7.59;100.00
58973;BME280;44750;52.040;7.472;2023-12-20T15:17:54;100165.97;;;7.62;100.00
58973;BME280;44750;52.040;7.472;2023-12-20T15:22:54;100191.31;;;7.69;100.00
58973;BME280;44750;52.040;7.472;2023-12-20T15:27:54;100203.97;;;7.68;100.00
58973;BME280;44750;52.040;7.472;2023-12-20T15:32:54;100217.72;;;7.65;100.00
58973;BME280;44750;52.040;7.472;2023-12-20T15:37:55;100224.09;;;7.64;100.00
58973;BME280;44750;52.040;7.472;2023-12-20T15:42:55;100232.91;;;7.66;100.00
58973;BME280;44750;52.040;7.472;2023-12-20T15:47:55;100239.28;;;7.65;100.00
58973;BME280;44750;52.040;7.472;2023-12-20T15:52:55;100240.41;;;7.63;100.00
58973;BME280;44750;52.040;7.472;2023-12-20T15:57:56;100250.63;;;7.59;100.00
58973;BME280;44750;52.040;7.472;2023-12-20T16:02:56;100241.84;;;7.57;100.00
58973;BME280;44750;52.040;7.472;2023-12-20T16:07:56;100255.19;;;7.59;100.00
58973;BME280;44750;52.040;7.472;2023-12-20T16:12:56;100273.72;;;7.62;100.00
58973;BME280;44750;52.040;7.472;2023-12-20T16:17:57;100278.44;;;7.60;100.00
58973;BME280;44750;52.040;7.472;2023-12-20T16:22:57;100285.94;;;7.56;100.00
58973;BME280;44750;52.040;7.472;2023-12-20T16:27:57;100285.78;;;7.58;100.00
58973;BME280;44750;52.040;7.472;2023-12-20T16:32:57;100295.44;;;7.60;100.00
58973;BME280;44750;52.040;7.472;2023-12-20T16:37:57;100295.59;;;7.59;100.00
58973;BME280;44750;52.040;7.472;2023-12-20T16:42:58;100290.03;;;7.60;100.00
58973;BME280;44750;52.040;7.472;2023-12-20T16:47:58;100310.75;;;7.60;100.00
58973;BME280;44750;52.040;7.472;2023-12-20T16:52:58;100287.66;;;7.57;100.00
58973;BME280;44750;52.040;7.472;2023-12-20T16:57:58;100316.25;;;7.58;100.00
58973;BME280;44750;52.040;7.472;2023-12-20T17:02:59;100311.03;;;7.57;100.00
58973;BME280;44750;52.040;7.472;2023-12-20T17:07:59;100311.31;;;7.53;100.00
58973;BME280;44750;52.040;7.472;2023-12-20T17:12:59;100293.16;;;7.56;100.00
58973;BME280;44750;52.040;7.472;2023-12-20T17:17:59;100294.59;;;7.60;100.00
58973;BME280;44750;52.040;7.472;2023-12-20T17:23:00;100285.22;;;7.54;100.00
58973;BME280;44750;52.040;7.472;2023-12-20T17:28:00;100300.53;;;7.53;100.00
58973;BME280;44750;52.040;7.472;2023-12-20T17:33:01;100278.28;;;7.51;100.00
58973;BME280;44750;52.040;7.472;2023-12-20T17:38:01;100285.38;;;7.52;100.00
58973;BME280;44750;52.040;7.472;2023-12-20T17:43:02;100273.03;;;7.50;100.00
58973;BME280;44750;52.040;7.472;2023-12-20T17:48:03;100282.69;;;7.52;100.00
58973;BME280;44750;52.040;7.472;2023-12-20T17:53:03;100295.16;;;7.53;100.00
58973;BME280;44750;52.040;7.472;2023-12-20T17:58:04;100294.84;;;7.57;100.00
58973;BME280;44750;52.040;7.472;2023-12-20T18:03:04;100299.69;;;7.53;100.00
58973;BME280;44750;52.040;7.472;2023-12-20T18:08:05;100283.25;;;7.56;100.00
58973;BME280;44750;52.040;7.472;2023-12-20T18:13:05;100297.41;;;7.58;100.00
58973;BME280;44750;52.040;7.472;2023-12-20T18:18:05;100292.88;;;7.59;100.00
58973;BME280;44750;52.040;7.472;2023-12-20T18:23:06;100303.09;;;7.55;100.00
58973;BME280;44750;52.040;7.472;2023-12-20T18:28:06;100312.44;;;7.61;100.00
58973;BME280;44750;52.040;7.472;2023-12-20T18:33:06;100308.59;;;7.63;100.00
58973;BME280;44750;52.040;7.472;2023-12-20T18:38:06;100316.00;;;7.61;100.00
58973;BME280;44750;52.040;7.472;2023-12-20T18:43:07;100313.84;;;7.65;100.00
58973;BME280;44750;52.040;7.472;2023-12-20T18:48:07;100317.41;;;7.65;100.00
58973;BME280;44750;52.040;7.472;2023-12-20T18:53:07;100314.72;;;7.65;100.00
58973;BME280;44750;52.040;7.472;2023-12-20T18:58:08;100322.66;;;7.67;100.00
58973;BME280;44750;52.040;7.472;2023-12-20T19:03:09;100319.22;;;7.65;100.00
58973;BME280;44750;52.040;7.472;2023-12-20T19:08:09;100334.41;;;7.66;100.00
58973;BME280;44750;52.040;7.472;2023-12-20T19:13:09;100320.94;;;7.66;100.00
58973;BME280;44750;52.040;7.472;2023-12-20T19:18:09;100315.13;;;7.70;100.00
58973;BME280;44750;52.040;7.472;2023-12-20T19:23:10;100311.88;;;7.67;100.00
58973;BME280;44750;52.040;7.472;2023-12-20T19:28:10;100313.56;;;7.68;100.00
58973;BME280;44750;52.040;7.472;2023-12-20T19:33:10;100309.59;;;7.72;100.00
58973;BME280;44750;52.040;7.472;2023-12-20T19:38:11;100329.44;;;7.71;100.00
58973;BME280;44750;52.040;7.472;2023-12-20T19:43:11;100328.16;;;7.75;100.00
58973;BME280;44750;52.040;7.472;2023-12-20T19:48:11;100339.66;;;7.77;100.00
58973;BME280;44750;52.040;7.472;2023-12-20T19:53:11;100317.38;;;7.75;100.00
58973;BME280;44750;52.040;7.472;2023-12-20T19:58:12;100313.84;;;7.75;100.00
58973;BME280;44750;52.040;7.472;2023-12-20T20:03:12;100305.03;;;7.73;100.00
58973;BME280;44750;52.040;7.472;2023-12-20T20:08:12;100313.69;;;7.76;100.00
58973;BME280;44750;52.040;7.472;2023-12-20T20:13:12;100300.38;;;7.75;100.00
58973;BME280;44750;52.040;7.472;2023-12-20T20:18:13;100310.69;;;7.79;100.00
58973;BME280;44750;52.040;7.472;2023-12-20T20:23:13;100300.22;;;7.76;100.00
58973;BME280;44750;52.040;7.472;2023-12-20T20:28:13;100313.66;;;7.86;100.00
58973;BME280;44750;52.040;7.472;2023-12-20T20:33:13;100317.50;;;7.83;100.00
58973;BME280;44750;52.040;7.472;2023-12-20T20:38:14;100322.63;;;7.86;100.00
58973;BME280;44750;52.040;7.472;2023-12-20T20:43:14;100348.69;;;7.96;100.00
58973;BME280;44750;52.040;7.472;2023-12-20T20:48:15;100356.78;;;7.96;100.00
58973;BME280;44750;52.040;7.472;2023-12-20T20:53:15;100368.25;;;7.98;100.00
58973;BME280;44750;52.040;7.472;2023-12-20T20:58:15;100355.75;;;7.97;100.00
58973;BME280;44750;52.040;7.472;2023-12-20T21:03:16;100366.28;;;8.00;100.00
58973;BME280;44750;52.040;7.472;2023-12-20T21:08:16;100365.69;;;8.06;100.00
58973;BME280;44750;52.040;7.472;2023-12-20T21:13:16;100356.91;;;8.04;100.00
58973;BME280;44750;52.040;7.472;2023-12-20T21:18:17;100393.34;;;8.08;100.00
58973;BME280;44750;52.040;7.472;2023-12-20T21:23:17;100373.63;;;8.08;100.00
58973;BME280;44750;52.040;7.472;2023-12-20T21:28:17;100375.06;;;8.12;100.00
58973;BME280;44750;52.040;7.472;2023-12-20T21:33:17;100357.75;;;8.14;100.00
58973;BME280;44750;52.040;7.472;2023-12-20T21:38:18;100353.47;;;8.12;100.00
58973;BME280;44750;52.040;7.472;2023-12-20T21:43:18;100345.78;;;8.17;100.00
58973;BME280;44750;52.040;7.472;2023-12-20T21:48:18;100339.56;;;8.16;100.00
58973;BME280;44750;52.040;7.472;2023-12-20T21:53:18;100343.94;;;8.17;100.00
58973;BME280;44750;52.040;7.472;2023-12-20T21:58:19;100348.34;;;8.18;100.00
58973;BME280;44750;52.040;7.472;2023-12-20T22:03:19;100344.63;;;8.19;100.00
58973;BME280;44750;52.040;7.472;2023-12-20T22:08:19;100373.16;;;8.22;100.00
58973;BME280;44750;52.040;7.472;2023-12-20T22:13:19;100386.78;;;8.30;100.00
58973;BME280;44750;52.040;7.472;2023-12-20T22:18:20;100409.34;;;8.29;100.00
58973;BME280;44750;52.040;7.472;2023-12-20T22:23:20;100429.47;;;8.35;100.00
58973;BME280;44750;52.040;7.472;2023-12-20T22:28:20;100437.44;;;8.36;100.00
58973;BME280;44750;52.040;7.472;2023-12-20T22:33:20;100452.47;;;8.39;100.00
58973;BME280;44750;52.040;7.472;2023-12-20T22:38:21;100450.50;;;8.41;100.00
58973;BME280;44750;52.040;7.472;2023-12-20T22:43:21;100451.19;;;8.43;100.00
58973;BME280;44750;52.040;7.472;2023-12-20T22:48:21;100466.09;;;8.47;100.00
58973;BME280;44750;52.040;7.472;2023-12-20T22:53:22;100464.13;;;8.49;100.00
58973;BME280;44750;52.040;7.472;2023-12-20T22:58:22;100469.63;;;8.58;100.00
58973;BME280;44750;52.040;7.472;2023-12-20T23:03:22;100465.22;;;8.57;100.00
58973;BME280;44750;52.040;7.472;2023-12-20T23:08:23;100477.44;;;8.61;100.00
58973;BME280;44750;52.040;7.472;2023-12-20T23:13:23;100488.78;;;8.64;100.00
58973;BME280;44750;52.040;7.472;2023-12-20T23:18:23;100489.63;;;8.65;100.00
58973;BME280;44750;52.040;7.472;2023-12-20T23:23:23;100480.53;;;8.66;100.00
58973;BME280;44750;52.040;7.472;2023-12-20T23:28:24;100489.34;;;8.68;100.00
58973;BME280;44750;52.040;7.472;2023-12-20T23:33:24;100503.38;;;8.72;100.00
58973;BME280;44750;52.040;7.472;2023-12-20T23:38:24;100510.50;;;8.73;100.00
58973;BME280;44750;52.040;7.472;2023-12-20T23:43:24;100507.53;;;8.76;100.00
58973;BME280;44750;52.040;7.472;2023-12-20T23:48:25;100500.84;;;8.70;100.00
58973;BME280;44750;52.040;7.472;2023-12-20T23:53:25;100500.16;;;8.68;100.00
58973;BME280;44750;52.040;7.472;2023-12-20T23:58:25;100511.63;;;8.70;100.00
